Terminal Aerodrome Forecast
Issued by NWS

Home | Current Version | Previous Version | Text Only | Print | Product List | Glossary On
Versions: 1 2 3 4 5 6 7 8 9 10 11 12 13 14 15 16 17 18
000
FTUS43 KEAX 271721
TAFSTJ
TAF
KSTJ 271721Z 2718/2818 15011KT P6SM FEW250
     FM280600 17010KT P6SM BKN250 WS020/19040KT
     FM281000 18012G22KT P6SM VCTS BKN200CB
     FM281500 20017G30KT P6SM BKN090=

USA.gov is the U.S. government's official web portal to all federal, state and local government web resources and services.